FOND DU LAC (CZFD)

METAR CZFD 291100Z AUTO 36008KT 9SM 06/04 A3012
METAR CZFD 291000Z AUTO 36007KT 9SM 06/04 A3010
METAR CZFD 290900Z AUTO 36005KT 9SM 07/04 A3008


Test Image


Test Image